Rankings de siempre
Mejores tiempos personales válidos de equipo a través de todos los eventos y temporadas. Cada equipo aparece una vez por división.
Busca por nombre y abre la página donde está clasificado este récord de división.
23,833 equipos clasificados
| Pos. | Pos. AG | Equipo | Nacionalidad | Categoría de edad | TiempoMejor tiempo | Diferencia |
|---|---|---|---|---|---|---|
| 23751 | #3720 | Bineet Singh & Satyajit ShikhareIND · M 25-29 · AG #3720 | IND | M 25-29 | 2:09:20 | +80:49 |
| 23752 | #1468 | Vivaan Sharma & Sohail KachoIND · M 16-24 · AG #1468 | IND | M 16-24 | 2:09:38 | +81:07 |
| 23753 | #2835 | Gilberto Ivan Martínez Vazquez & Marco Antonio Sánchez AlbaMEX · M 40-44 · AG #2835 | MEX | M 40-44 | 2:09:51 | +81:20 |
| 23754 | #3567 | Mamoloko Mangokoane & Mpumezo MadikwaRSA · M 35-39 · AG #3567 | RSA | M 35-39 | 2:10:03 | +81:32 |
| 23755 | #1469 | Chandra Wijaya & Keane Dylan TanuwijayaINA · M 16-24 · AG #1469 | INA | M 16-24 | 2:10:20 | +81:49 |
| 23756 | -- | Mark Handley & Robert SmithiesGBR · M | GBR | -- | 2:10:29 | +81:58 |
| 23757 | #3568 | Hugo Enrique Salinas Castro & Alfonso Madrigal ChiuMEX · M 35-39 · AG #3568 | MEX | M 35-39 | 2:10:41 | +82:10 |
| 23758 | #3721 | Ali Emre Balk & Arda ÇevikerTUR · M 25-29 · AG #3721 | TUR | M 25-29 | 2:10:43 | +82:12 |
| 23759 | #3722 | Kevin Jonathan & Shi Quan HuangSIN · M 25-29 · AG #3722 | SIN | M 25-29 | 2:10:49 | +82:18 |
| 23760 | #3723 | Vamsi Giduthuri & Sai MohanIND · M 25-29 · AG #3723 | IND | M 25-29 | 2:11:14 | +82:43 |
| 23761 | #9250 | Joseph Phiri & Brian WattM 30-34 · AG #9250 | -- | M 30-34 | 2:11:19 | +82:48 |
| 23762 | #9251 | Giovanni Vicedomini & Dario VicedominiITA · M 30-34 · AG #9251 | ITA | M 30-34 | 2:11:27 | +82:56 |
| 23763 | #17 | Evan Andrews & Adam MejiasM 75-79 · AG #17 | -- | M 75-79 | 2:11:42 | +83:11 |
| 23764 | #9252 | Sven Vierbuchen & Kevin WeberGER · M 30-34 · AG #9252 | GER | M 30-34 | 2:12:26 | +83:55 |
| 23765 | #39 | Divakaran M & Abdul AzimSIN · M 16-29 · AG #39 | SIN | M 16-29 | 2:12:27 | +83:56 |
| 23766 | #2836 | 태훈 하 & 석환 홍KOR · M 40-44 · AG #2836 | KOR | M 40-44 | 2:12:51 | +84:20 |
| 23767 | #3569 | Peter Csaba & Vincze UriHUN · M 35-39 · AG #3569 | HUN | M 35-39 | 2:12:53 | +84:22 |
| 23768 | #9253 | René Dehesas Presas & JUAN ASCENCIO ORTIZMEX · M 30-34 · AG #9253 | MEX | M 30-34 | 2:13:12 | +84:41 |
| 23769 | #9254 | Abdul Muhaimin Rofie & Tengku Shafiq TM ShariffMAS · M 30-34 · AG #9254 | MAS | M 30-34 | 2:13:18 | +84:47 |
| 23770 | #3724 | Dilan See & Russell ThiahSIN · M 25-29 · AG #3724 | SIN | M 25-29 | 2:13:18 | +84:47 |
| 23771 | #3725 | Isaac Carrera & Gilberto RamírezMEX · M 25-29 · AG #3725 | MEX | M 25-29 | 2:13:24 | +84:53 |
| 23772 | #9255 | Bryan Mcelvaney & Adam CullenIRL · M 30-34 · AG #9255 | IRL | M 30-34 | 2:13:31 | +85:00 |
| 23773 | #478 | Junior Valentin & Michael HendricksUSA · M 50-54 · AG #478 | USA | M 50-54 | 2:13:39 | +85:08 |
| 23774 | #9256 | Wattanachai Somsawat & Aphisit ChuratTHA · M 30-34 · AG #9256 | THA | M 30-34 | 2:13:40 | +85:09 |
| 23775 | #9257 | Mauricio Pinto & Alexander FeldkampM 30-34 · AG #9257 | -- | M 30-34 | 2:13:41 | +85:10 |
Página 951 de 954